Time;durP1;ratioP1;P1;durP2;ratioP2;P2;SDS_P1;SDS_P2;PMS_P1;PMS_P2;Temp;Humidity;BMP_temperature;BMP_pressure;BME280_temperature;BME280_humidity;BME280_pressure;Samples;Min_cycle;Max_cycle;Signal;HPM_P1;HPM_P2
2023/03/22 00:00:16;;;;;;;5.35;3.40;;;11.50;99.90;;;;;;5011090;28;20201;-66
2023/03/22 00:02:41;;;;;;;7.00;3.58;;;11.60;99.90;;;;;;5010731;28;20921;-66
2023/03/22 00:05:07;;;;;;;5.07;3.80;;;11.70;99.90;;;;;;5008513;28;20221;-66
2023/03/22 00:07:33;;;;;;;5.35;3.22;;;11.50;99.90;;;;;;5011091;28;20197;-66
2023/03/22 00:09:59;;;;;;;7.00;5.07;;;11.50;99.90;;;;;;5009897;28;20199;-66
2023/03/22 00:12:24;;;;;;;3.70;3.40;;;11.70;99.90;;;;;;5011368;28;20179;-67
2023/03/22 00:14:51;;;;;;;3.60;3.30;;;11.20;99.90;;;;;;5011280;28;20545;-66
2023/03/22 00:17:17;;;;;;;3.90;3.50;;;11.40;99.90;;;;;;5013590;28;20264;-66
2023/03/22 00:19:43;;;;;;;4.03;3.45;;;11.20;99.90;;;;;;5010211;28;20628;-67
2023/03/22 00:22:10;;;;;;;4.00;3.60;;;11.50;99.90;;;;;;5008319;28;20545;-66
2023/03/22 00:24:36;;;;;;;3.80;3.50;;;11.30;99.90;;;;;;5009628;28;20205;-66
2023/03/22 00:27:02;;;;;;;5.47;4.13;;;11.20;99.90;;;;;;5006451;28;20182;-66
2023/03/22 00:29:28;;;;;;;4.47;3.40;;;11.20;99.90;;;;;;5014902;28;20208;-66
2023/03/22 00:31:55;;;;;;;3.55;3.25;;;11.50;99.90;;;;;;5005767;28;20977;-66
2023/03/22 00:34:20;;;;;;;3.58;3.28;;;11.30;99.90;;;;;;5005681;28;20192;-66
2023/03/22 00:36:47;;;;;;;4.10;3.70;;;11.20;99.90;;;;;;5008930;28;20187;-66
2023/03/22 00:39:12;;;;;;;4.68;3.90;;;11.20;99.90;;;;;;5010482;28;20679;-66
2023/03/22 00:41:38;;;;;;;3.40;3.10;;;11.20;99.90;;;;;;5008288;28;20217;-66
2023/03/22 00:44:04;;;;;;;4.10;3.13;;;11.20;99.90;;;;;;5006065;28;20206;-66
2023/03/22 00:46:29;;;;;;;3.77;3.30;;;11.20;99.90;;;;;;5006838;28;20187;-66
2023/03/22 00:48:55;;;;;;;3.50;3.20;;;11.40;99.90;;;;;;5009186;28;20203;-66
2023/03/22 00:51:21;;;;;;;5.27;3.70;;;11.10;99.90;;;;;;5003231;28;20206;-66
2023/03/22 00:53:49;;;;;;;3.63;3.10;;;11.40;99.90;;;;;;5008908;28;20201;-66
2023/03/22 00:56:15;;;;;;;3.20;2.90;;;11.20;99.90;;;;;;5009854;28;20268;-66
2023/03/22 00:58:42;;;;;;;3.33;3.03;;;11.10;99.90;;;;;;5007800;28;20265;-66
2023/03/22 01:01:07;;;;;;;3.80;3.40;;;11.20;99.90;;;;;;5006663;28;20198;-66
2023/03/22 01:03:33;;;;;;;4.00;3.60;;;11.40;99.90;;;;;;5006496;28;20206;-66
2023/03/22 01:05:59;;;;;;;3.07;2.87;;;11.10;99.90;;;;;;5005239;28;20492;-66
2023/03/22 01:08:32;;;;;;;3.30;3.00;;;11.20;99.90;;;;;;5007675;28;20527;-66
2023/03/22 01:10:59;;;;;;;4.13;3.65;;;11.10;99.90;;;;;;5007059;28;20297;-66
2023/03/22 01:13:24;;;;;;;4.00;3.10;;;11.10;99.90;;;;;;5008681;28;20654;-66
2023/03/22 01:15:51;;;;;;;3.43;3.13;;;11.00;99.90;;;;;;5005414;28;20187;-66
2023/03/22 01:18:17;;;;;;;4.40;4.10;;;11.30;99.90;;;;;;5008320;28;20191;-66
2023/03/22 01:20:42;;;;;;;4.15;3.75;;;11.00;99.90;;;;;;5004779;28;20749;-67
2023/03/22 01:23:08;;;;;;;3.17;2.90;;;11.20;99.90;;;;;;5006936;28;20405;-66
2023/03/22 01:25:34;;;;;;;3.40;3.10;;;11.00;99.90;;;;;;5002656;28;20222;-66
2023/03/22 01:28:01;;;;;;;3.67;3.37;;;11.00;99.90;;;;;;5007197;28;20198;-66
2023/03/22 01:30:27;;;;;;;3.33;3.08;;;10.90;99.90;;;;;;5008086;28;20202;-66
2023/03/22 01:32:53;;;;;;;4.15;3.25;;;10.70;99.90;;;;;;5006812;28;20182;-66
2023/03/22 01:35:19;;;;;;;4.00;3.60;;;10.80;99.90;;;;;;5004160;28;20251;-66
2023/03/22 01:37:44;;;;;;;3.60;3.30;;;10.70;99.90;;;;;;5010534;28;20185;-66
2023/03/22 01:40:13;;;;;;;3.70;3.40;;;10.60;99.90;;;;;;5008738;28;20208;-66
2023/03/22 01:42:39;;;;;;;4.00;3.60;;;10.60;99.90;;;;;;5010797;28;20647;-66
2023/03/22 01:45:13;;;;;;;4.28;3.22;;;10.80;99.90;;;;;;5008466;28;20218;-66
2023/03/22 01:47:50;;;;;;;3.38;3.05;;;10.60;99.90;;;;;;5003914;28;20189;-66
2023/03/22 01:50:17;;;;;;;3.53;2.95;;;10.40;99.90;;;;;;5039338;28;20196;-66
2023/03/22 01:52:43;;;;;;;4.20;3.35;;;10.40;99.90;;;;;;5008837;28;20177;-66
2023/03/22 01:55:10;;;;;;;4.68;3.50;;;10.50;99.90;;;;;;5022790;28;20241;-66
2023/03/22 01:57:37;;;;;;;4.45;3.15;;;10.30;99.90;;;;;;5008333;28;20197;-66
2023/03/22 02:00:14;;;;;;;3.30;3.00;;;10.50;99.90;;;;;;5008353;28;20245;-66
2023/03/22 02:02:41;;;;;;;4.40;3.60;;;10.40;99.90;;;;;;5008866;28;20225;-66
2023/03/22 02:05:08;;;;;;;3.85;3.38;;;10.20;99.90;;;;;;5007270;28;20209;-66
2023/03/22 02:07:35;;;;;;;5.13;3.20;;;10.20;99.90;;;;;;5007727;28;20200;-66
2023/03/22 02:10:01;;;;;;;3.80;3.38;;;10.20;99.90;;;;;;5007207;28;20275;-66
2023/03/22 02:12:59;;;;;;;3.80;3.00;;;10.20;99.90;;;;;;5009100;28;20583;-66
2023/03/22 02:15:32;;;;;;;3.80;3.28;;;10.20;99.90;;;;;;5010479;28;20187;-66
2023/03/22 02:18:18;;;;;;;4.50;2.95;;;10.30;99.90;;;;;;5007986;28;20579;-66
2023/03/22 02:20:52;;;;;;;3.40;3.10;;;10.10;99.90;;;;;;5005571;28;20215;-66
2023/03/22 02:23:30;;;;;;;4.00;3.70;;;9.90;99.90;;;;;;5009276;28;20682;-66
2023/03/22 02:26:01;;;;;;;4.05;3.45;;;10.00;99.90;;;;;;5006828;28;20193;-66
2023/03/22 02:28:41;;;;;;;4.40;3.10;;;9.60;99.90;;;;;;5007645;28;20184;-66
2023/03/22 02:31:19;;;;;;;4.65;3.00;;;9.60;99.90;;;;;;5010923;28;20217;-66
2023/03/22 02:34:14;;;;;;;3.50;3.20;;;9.60;99.90;;;;;;5007358;28;20182;-66
2023/03/22 02:37:02;;;;;;;3.50;3.00;;;9.50;99.90;;;;;;5007151;28;20195;-66
2023/03/22 02:39:30;;;;;;;5.10;3.13;;;9.50;99.90;;;;;;5010289;28;20181;-66
2023/03/22 02:42:08;;;;;;;3.40;3.10;;;9.50;99.90;;;;;;5007981;28;20205;-66
2023/03/22 02:44:50;;;;;;;3.60;3.22;;;9.50;99.90;;;;;;5007664;28;20244;-66
2023/03/22 02:47:22;;;;;;;3.80;3.25;;;9.40;99.90;;;;;;5005309;28;20231;-66
2023/03/22 02:50:19;;;;;;;3.50;3.20;;;9.50;99.90;;;;;;5006611;28;20216;-66
2023/03/22 02:53:04;;;;;;;4.75;4.22;;;9.30;99.90;;;;;;5005958;28;20185;-66
2023/03/22 02:55:58;;;;;;;3.70;3.40;;;9.40;99.90;;;;;;5005259;28;20215;-66
2023/03/22 02:58:26;;;;;;;4.35;3.95;;;9.30;99.90;;;;;;5005801;28;20209;-66
2023/03/22 03:00:58;;;;;;;6.32;4.13;;;9.40;99.90;;;;;;5008220;28;20200;-66
2023/03/22 03:03:28;;;;;;;5.78;4.30;;;9.30;99.90;;;;;;5007356;28;20200;-66
2023/03/22 03:05:57;;;;;;;5.95;3.60;;;9.20;99.90;;;;;;5007823;28;20555;-65
2023/03/22 03:08:24;;;;;;;6.72;5.30;;;9.30;99.90;;;;;;5009322;28;20247;-65
2023/03/22 03:10:51;;;;;;;4.03;3.67;;;9.10;99.90;;;;;;5007655;28;20204;-65
2023/03/22 03:13:18;;;;;;;4.20;3.72;;;9.20;99.90;;;;;;5014946;28;20558;-65
2023/03/22 03:15:51;;;;;;;3.90;2.92;;;9.10;99.90;;;;;;5007815;28;20193;-66
2023/03/22 03:18:35;;;;;;;3.90;3.50;;;9.10;99.90;;;;;;5009062;28;20269;-65
2023/03/22 03:21:08;;;;;;;3.25;2.92;;;9.10;99.90;;;;;;5009003;28;20208;-65
2023/03/22 03:24:02;;;;;;;3.78;3.47;;;9.00;99.90;;;;;;5008445;28;20272;-65
2023/03/22 03:26:59;;;;;;;3.30;3.00;;;9.00;99.90;;;;;;5005391;28;20195;-65
2023/03/22 03:29:44;;;;;;;3.28;2.95;;;9.20;99.90;;;;;;5010135;28;20406;-65
2023/03/22 03:32:15;;;;;;;3.90;2.83;;;8.90;99.90;;;;;;5012067;28;20831;-66
2023/03/22 03:34:48;;;;;;;3.22;2.90;;;8.90;99.90;;;;;;5010905;28;20187;-66
2023/03/22 03:37:20;;;;;;;4.90;3.45;;;8.90;99.90;;;;;;5013673;28;20184;-66
2023/03/22 03:40:04;;;;;;;3.30;3.00;;;8.80;99.90;;;;;;5010773;28;20213;-65
2023/03/22 03:42:31;;;;;;;2.83;2.58;;;8.70;99.90;;;;;;5010359;28;20670;-65
2023/03/22 03:44:58;;;;;;;4.30;3.22;;;8.70;99.90;;;;;;5012718;28;20219;-65
2023/03/22 03:47:27;;;;;;;4.00;3.70;;;8.90;99.90;;;;;;5012342;28;20178;-65
2023/03/22 03:49:52;;;;;;;4.93;3.05;;;8.60;99.90;;;;;;5010013;28;20241;-65
2023/03/22 03:52:18;;;;;;;4.67;3.10;;;9.20;99.90;;;;;;5011143;28;20190;-65
2023/03/22 03:54:44;;;;;;;3.40;3.10;;;8.70;99.90;;;;;;5011730;28;20193;-65
2023/03/22 03:57:11;;;;;;;3.80;2.60;;;8.70;99.90;;;;;;5012227;28;20205;-65
2023/03/22 03:59:36;;;;;;;4.00;3.17;;;9.00;99.90;;;;;;5012254;28;20191;-65
2023/03/22 04:02:02;;;;;;;6.33;3.40;;;8.80;99.90;;;;;;5011158;28;21555;-65
2023/03/22 04:04:28;;;;;;;4.27;3.33;;;8.80;99.90;;;;;;5011695;28;20253;-65
2023/03/22 04:06:55;;;;;;;3.90;3.60;;;9.00;99.90;;;;;;5009263;28;20180;-65
2023/03/22 04:09:26;;;;;;;4.32;3.22;;;8.80;99.90;;;;;;5011495;28;20211;-65
2023/03/22 04:11:52;;;;;;;3.63;3.17;;;9.00;99.90;;;;;;5012904;28;20677;-65
2023/03/22 04:14:19;;;;;;;3.42;3.13;;;9.00;99.90;;;;;;5009808;28;20680;-64
2023/03/22 04:16:45;;;;;;;3.55;3.03;;;9.10;99.90;;;;;;5011015;28;20566;-67
2023/03/22 04:19:11;;;;;;;3.97;3.00;;;8.90;99.90;;;;;;5011407;28;20189;-67
2023/03/22 04:21:37;;;;;;;4.03;3.37;;;8.70;99.90;;;;;;5008838;28;20268;-66
2023/03/22 04:24:02;;;;;;;4.03;3.53;;;8.80;99.90;;;;;;5010677;28;20553;-67
2023/03/22 04:26:28;;;;;;;3.17;2.97;;;8.60;99.90;;;;;;5008879;28;20184;-67
2023/03/22 04:28:54;;;;;;;4.13;3.73;;;9.00;99.90;;;;;;5010324;28;20185;-67
2023/03/22 04:31:19;;;;;;;3.27;3.07;;;8.80;99.90;;;;;;5011434;28;20347;-67
2023/03/22 04:33:45;;;;;;;3.60;3.37;;;9.00;99.90;;;;;;5010206;28;20215;-65
2023/03/22 04:36:16;;;;;;;3.78;3.47;;;9.20;99.90;;;;;;5010581;28;20200;-67
2023/03/22 04:38:42;;;;;;;3.58;3.28;;;8.80;99.90;;;;;;5009029;28;20250;-67
2023/03/22 04:41:09;;;;;;;4.35;3.28;;;8.90;99.90;;;;;;5000826;28;20268;-67
2023/03/22 04:43:38;;;;;;;4.70;3.40;;;8.80;99.90;;;;;;5010784;28;20188;-67
2023/03/22 04:46:05;;;;;;;4.03;3.63;;;8.80;99.90;;;;;;5010340;28;20191;-67
2023/03/22 04:48:31;;;;;;;4.05;3.35;;;8.90;99.90;;;;;;5009622;28;20201;-67
2023/03/22 04:50:57;;;;;;;3.30;3.00;;;8.40;99.90;;;;;;5008753;28;20204;-65
2023/03/22 04:53:26;;;;;;;10.03;2.83;;;9.00;99.90;;;;;;5010377;28;20188;-65
2023/03/22 04:55:55;;;;;;;3.17;2.83;;;8.80;99.90;;;;;;5008042;28;20463;-65
2023/03/22 04:58:22;;;;;;;4.43;3.30;;;8.50;99.90;;;;;;5008381;28;20458;-65
2023/03/22 05:00:49;;;;;;;5.03;3.13;;;8.80;99.90;;;;;;5006710;28;20206;-67
2023/03/22 05:03:18;;;;;;;3.85;3.20;;;8.60;99.90;;;;;;5005212;28;20193;-65
2023/03/22 05:05:49;;;;;;;5.10;3.42;;;8.20;99.90;;;;;;5009588;28;20218;-65
2023/03/22 05:08:15;;;;;;;4.38;3.20;;;8.70;99.90;;;;;;5007130;28;20201;-67
2023/03/22 05:10:40;;;;;;;5.30;4.10;;;8.70;99.90;;;;;;5005616;28;20684;-65
2023/03/22 05:13:06;;;;;;;4.57;3.17;;;8.80;99.90;;;;;;5009641;28;20615;-64
2023/03/22 05:15:32;;;;;;;5.17;3.40;;;8.50;99.90;;;;;;5008913;28;20197;-64
2023/03/22 05:17:58;;;;;;;3.92;3.50;;;8.80;99.90;;;;;;5007783;28;20202;-64
2023/03/22 05:20:23;;;;;;;3.50;3.20;;;8.80;99.90;;;;;;5020599;28;20710;-64
2023/03/22 05:22:49;;;;;;;3.93;3.63;;;8.60;99.90;;;;;;5005903;28;20186;-64
2023/03/22 05:25:15;;;;;;;6.30;4.10;;;8.50;99.90;;;;;;5006179;28;20209;-66
2023/03/22 05:27:40;;;;;;;4.80;3.60;;;8.70;99.90;;;;;;5007764;28;20179;-66
2023/03/22 05:30:07;;;;;;;4.70;3.40;;;8.10;99.90;;;;;;5006294;28;20209;-66
2023/03/22 05:32:32;;;;;;;3.40;3.10;;;8.60;99.90;;;;;;5008087;28;20185;-66
2023/03/22 05:35:03;;;;;;;4.30;3.90;;;8.60;99.90;;;;;;5004560;28;20646;-66
2023/03/22 05:37:29;;;;;;;7.55;3.70;;;8.60;99.90;;;;;;5007721;28;20187;-64
2023/03/22 05:39:54;;;;;;;3.40;3.10;;;8.80;99.90;;;;;;5006127;28;20223;-64
2023/03/22 05:42:20;;;;;;;8.90;3.70;;;8.70;99.90;;;;;;5005594;28;20195;-64
2023/03/22 05:44:45;;;;;;;7.23;4.10;;;8.80;99.90;;;;;;5007300;28;20480;-66
2023/03/22 05:47:11;;;;;;;4.07;3.67;;;8.80;99.90;;;;;;5006600;28;20184;-64
2023/03/22 05:49:37;;;;;;;4.43;3.70;;;8.70;99.90;;;;;;5004585;28;20205;-66
2023/03/22 05:52:04;;;;;;;4.67;3.77;;;8.90;99.90;;;;;;5004471;28;20193;-66
2023/03/22 05:54:30;;;;;;;6.13;3.28;;;8.90;99.90;;;;;;5007760;28;20273;-64
2023/03/22 05:56:55;;;;;;;4.57;3.50;;;8.90;99.90;;;;;;5006865;28;20183;-64
2023/03/22 05:59:21;;;;;;;4.07;3.67;;;8.70;99.90;;;;;;5006870;28;20193;-65
2023/03/22 06:01:47;;;;;;;3.60;3.30;;;8.90;99.90;;;;;;5007057;28;20208;-67
2023/03/22 06:04:12;;;;;;;3.70;3.30;;;8.60;99.90;;;;;;5007195;28;20213;-67
2023/03/22 06:06:38;;;;;;;4.90;4.30;;;8.80;99.90;;;;;;5003557;28;20198;-67
2023/03/22 06:09:03;;;;;;;8.30;4.30;;;8.90;99.90;;;;;;5003639;28;20191;-67
2023/03/22 06:11:34;;;;;;;5.20;3.63;;;8.90;99.90;;;;;;5002331;28;20259;-64
2023/03/22 06:14:00;;;;;;;3.85;3.15;;;8.80;99.90;;;;;;5008388;28;20688;-64
2023/03/22 06:16:26;;;;;;;5.47;3.90;;;8.90;99.90;;;;;;5005271;28;20304;-65
2023/03/22 06:18:52;;;;;;;4.22;3.42;;;8.90;99.90;;;;;;5007803;28;20263;-64
2023/03/22 06:21:17;;;;;;;6.10;3.67;;;9.20;99.90;;;;;;5008346;28;20223;-64
2023/03/22 06:23:43;;;;;;;5.00;4.20;;;9.10;99.90;;;;;;5005055;28;20247;-66
2023/03/22 06:26:12;;;;;;;7.70;4.03;;;9.20;99.90;;;;;;5003778;28;20670;-64
2023/03/22 06:28:37;;;;;;;8.68;4.15;;;9.20;99.90;;;;;;5005481;28;20220;-65
2023/03/22 06:31:07;;;;;;;11.03;4.13;;;9.70;99.90;;;;;;5005911;28;20235;-68
2023/03/22 06:33:35;;;;;;;3.67;3.20;;;9.20;99.90;;;;;;5005717;28;20189;-68
2023/03/22 06:36:01;;;;;;;5.45;4.25;;;9.30;99.90;;;;;;5004785;28;20568;-68
2023/03/22 06:38:27;;;;;;;5.22;4.32;;;9.30;99.90;;;;;;5002437;28;20189;-68
2023/03/22 06:40:53;;;;;;;3.45;3.15;;;9.40;99.90;;;;;;5004131;28;20211;-68
2023/03/22 06:43:19;;;;;;;5.10;4.40;;;9.60;99.90;;;;;;5001864;28;20198;-69
2023/03/22 06:45:47;;;;;;;7.37;4.80;;;9.30;99.90;;;;;;5000499;28;20265;-69
2023/03/22 06:48:13;;;;;;;4.45;4.05;;;9.70;99.90;;;;;;5005073;28;20272;-70
2023/03/22 06:50:40;;;;;;;4.97;4.00;;;9.70;99.90;;;;;;5007524;28;20678;-71
2023/03/22 06:53:07;;;;;;;8.70;4.47;;;9.90;99.90;;;;;;5005444;28;20472;-70
2023/03/22 06:55:33;;;;;;;4.40;4.00;;;9.90;99.90;;;;;;5005055;28;20280;-70
2023/03/22 06:58:00;;;;;;;4.82;3.75;;;10.50;99.90;;;;;;5004723;28;20278;-69
2023/03/22 07:00:26;;;;;;;5.53;4.90;;;10.40;99.90;;;;;;5003442;28;20215;-67
2023/03/22 07:02:52;;;;;;;6.50;3.25;;;10.50;99.90;;;;;;5004278;28;20308;-67
2023/03/22 07:05:17;;;;;;;5.40;3.27;;;11.00;99.90;;;;;;5007532;28;20301;-69
2023/03/22 07:07:43;;;;;;;10.00;5.40;;;12.50;99.90;;;;;;5011990;28;20179;-73
2023/03/22 07:10:09;;;;;;;4.83;3.60;;;14.60;99.90;;;;;;5020160;28;20230;-74
2023/03/22 07:12:34;;;;;;;4.30;3.30;;;16.60;95.10;;;;;;5008940;28;20690;-76
2023/03/22 07:15:00;;;;;;;6.23;3.50;;;17.60;91.70;;;;;;5008725;28;20696;-78
2023/03/22 07:17:26;;;;;;;4.50;3.10;;;19.20;87.50;;;;;;5009727;28;20683;-78
2023/03/22 07:19:52;;;;;;;6.53;3.50;;;20.80;80.60;;;;;;5021789;28;20520;-77
2023/03/22 07:22:21;;;;;;;2.67;2.43;;;21.20;75.00;;;;;;5011081;28;20187;-75
2023/03/22 07:24:49;;;;;;;10.60;2.80;;;22.40;70.00;;;;;;5026572;28;20472;-70
2023/03/22 07:27:16;;;;;;;4.60;3.10;;;23.30;65.00;;;;;;5041554;28;20470;-73
2023/03/22 07:29:42;;;;;;;4.20;2.80;;;23.10;61.00;;;;;;5005427;28;20565;-73
2023/03/22 07:32:07;;;;;;;11.90;5.77;;;23.30;61.40;;;;;;5011184;28;20459;-73
2023/03/22 07:34:33;;;;;;;2.30;2.10;;;23.40;59.70;;;;;;5006557;28;20436;-73
2023/03/22 07:36:59;;;;;;;3.20;2.50;;;23.60;59.20;;;;;;5008642;28;20453;-73
2023/03/22 07:39:25;;;;;;;3.43;2.30;;;24.30;56.60;;;;;;5008677;28;20181;-72
2023/03/22 07:41:51;;;;;;;5.00;3.87;;;24.20;57.30;;;;;;5004585;28;20217;-72
2023/03/22 07:44:17;;;;;;;4.53;2.70;;;25.00;54.80;;;;;;5009766;28;20213;-72
2023/03/22 07:46:42;;;;;;;2.83;1.80;;;24.50;54.40;;;;;;5008938;28;20437;-72
2023/03/22 07:49:08;;;;;;;1.90;1.80;;;24.50;54.20;;;;;;5006519;28;21237;-71
2023/03/22 07:51:34;;;;;;;2.73;2.00;;;24.40;54.50;;;;;;5007650;28;20200;-72
2023/03/22 07:54:00;;;;;;;3.07;2.17;;;25.20;53.50;;;;;;5007267;28;20269;-72
2023/03/22 07:56:26;;;;;;;13.13;3.60;;;27.20;51.20;;;;;;5006827;28;20186;-71
2023/03/22 07:58:51;;;;;;;5.90;5.07;;;27.00;48.80;;;;;;5008960;28;20503;-71
2023/03/22 08:01:17;;;;;;;2.37;1.73;;;26.30;48.40;;;;;;5008207;28;20209;-72
2023/03/22 08:03:42;;;;;;;2.43;2.03;;;25.90;49.50;;;;;;5006859;28;20281;-72
2023/03/22 08:06:09;;;;;;;2.20;1.97;;;25.80;49.30;;;;;;5005126;28;20651;-72
2023/03/22 08:08:35;;;;;;;2.00;1.80;;;25.60;49.10;;;;;;5007140;28;20667;-71
2023/03/22 08:11:05;;;;;;;2.10;1.60;;;25.80;49.00;;;;;;5002764;28;20879;-71
2023/03/22 08:13:31;;;;;;;3.10;2.60;;;25.80;49.20;;;;;;5020970;28;20495;-71
2023/03/22 08:15:56;;;;;;;1.60;1.50;;;26.60;48.30;;;;;;5007152;28;20449;-76
2023/03/22 08:18:22;;;;;;;1.83;1.70;;;26.20;47.20;;;;;;5009430;28;20682;-74
2023/03/22 08:20:55;;;;;;;2.00;1.80;;;27.40;46.90;;;;;;5011034;28;20216;-74
2023/03/22 08:23:22;;;;;;;1.87;1.60;;;27.50;45.80;;;;;;5005593;28;20196;-75
2023/03/22 08:25:47;;;;;;;2.43;2.00;;;26.90;46.20;;;;;;5007823;28;21361;-74
2023/03/22 08:28:14;;;;;;;1.70;1.60;;;27.60;45.80;;;;;;5009046;28;20450;-75
2023/03/22 08:30:41;;;;;;;2.30;2.10;;;27.00;45.80;;;;;;5008585;28;20500;-74
2023/03/22 08:33:06;;;;;;;2.00;1.80;;;26.50;46.70;;;;;;5006575;28;20460;-74
2023/03/22 08:35:33;;;;;;;6.50;2.53;;;25.90;47.50;;;;;;5006478;28;21540;-74
2023/03/22 08:37:58;;;;;;;2.03;1.83;;;25.50;48.20;;;;;;5007394;28;20208;-75
2023/03/22 08:40:24;;;;;;;2.27;1.60;;;26.00;49.20;;;;;;5005680;28;21012;-75
2023/03/22 08:42:50;;;;;;;2.10;1.83;;;25.70;48.60;;;;;;5011862;28;20563;-74
2023/03/22 08:45:16;;;;;;;3.40;1.60;;;26.30;47.40;;;;;;5009425;28;20475;-73
2023/03/22 08:47:42;;;;;;;2.33;1.63;;;24.80;48.50;;;;;;5004965;28;20703;-71
2023/03/22 08:50:10;;;;;;;1.63;1.50;;;25.30;49.40;;;;;;5005477;28;20462;-73
2023/03/22 08:52:35;;;;;;;1.50;1.40;;;25.30;49.60;;;;;;5010112;28;20440;-71
2023/03/22 08:55:02;;;;;;;4.13;2.90;;;25.30;49.70;;;;;;5006821;28;20727;-73
2023/03/22 08:57:28;;;;;;;1.60;1.50;;;26.20;48.70;;;;;;5007013;28;20194;-74
2023/03/22 08:59:55;;;;;;;4.80;2.07;;;26.10;48.50;;;;;;5007940;28;20466;-74
2023/03/22 09:02:21;;;;;;;1.47;1.30;;;25.70;48.70;;;;;;5007408;28;20194;-72
2023/03/22 09:04:47;;;;;;;2.60;1.20;;;25.40;48.80;;;;;;5009489;28;20466;-73
2023/03/22 09:07:12;;;;;;;1.50;1.10;;;25.30;50.00;;;;;;5007053;28;20498;-72
2023/03/22 09:09:38;;;;;;;2.03;1.57;;;24.40;50.90;;;;;;5007084;28;20191;-71
2023/03/22 09:12:04;;;;;;;1.67;1.27;;;24.10;51.70;;;;;;5007249;28;20567;-72
2023/03/22 09:14:29;;;;;;;1.20;1.10;;;23.80;52.00;;;;;;5008235;28;20267;-72
2023/03/22 09:16:56;;;;;;;3.57;1.80;;;23.50;53.00;;;;;;5005898;28;20811;-72
2023/03/22 09:19:22;;;;;;;67.40;8.90;;;23.70;53.40;;;;;;5005684;28;20538;-73
2023/03/22 09:21:48;;;;;;;1.77;1.20;;;23.10;53.70;;;;;;5007884;28;20560;-72
2023/03/22 09:24:14;;;;;;;2.17;1.47;;;23.60;53.60;;;;;;5011084;28;21159;-75
2023/03/22 09:26:40;;;;;;;2.77;1.63;;;24.20;52.80;;;;;;5003306;28;20462;-73
2023/03/22 09:29:06;;;;;;;6.17;1.50;;;24.20;52.10;;;;;;5005888;28;20308;-72
2023/03/22 09:31:32;;;;;;;2.60;1.67;;;23.80;52.80;;;;;;5008836;28;20559;-72
2023/03/22 09:33:57;;;;;;;2.07;1.60;;;23.40;53.80;;;;;;5008890;28;20586;-72
2023/03/22 09:36:23;;;;;;;7.03;1.87;;;23.00;53.50;;;;;;5007286;28;20207;-73
2023/03/22 09:38:49;;;;;;;2.23;1.30;;;22.20;54.60;;;;;;5005150;28;20211;-73
2023/03/22 09:41:30;;;;;;;1.10;1.00;;;21.90;55.40;;;;;;5018563;28;20306;-72
2023/03/22 09:43:59;;;;;;;1.90;1.33;;;21.90;55.30;;;;;;5006461;28;20550;-74
2023/03/22 09:46:35;;;;;;;1.20;0.93;;;22.50;54.50;;;;;;5005882;28;20540;-74
2023/03/22 09:49:06;;;;;;;2.73;1.60;;;23.00;54.20;;;;;;5005903;28;20450;-74
2023/03/22 09:51:43;;;;;;;2.13;1.03;;;23.30;53.00;;;;;;5004395;28;20464;-73
2023/03/22 09:54:14;;;;;;;1.40;1.30;;;23.70;52.60;;;;;;5000497;28;20450;-69
2023/03/22 09:56:39;;;;;;;2.80;1.40;;;24.30;51.70;;;;;;5024885;28;20481;-70
2023/03/22 09:59:20;;;;;;;1.63;1.50;;;24.60;51.30;;;;;;5006863;28;20477;-70
2023/03/22 10:01:57;;;;;;;1.60;1.40;;;24.50;51.10;;;;;;5009725;28;20207;-70
2023/03/22 10:05:01;;;;;;;1.33;1.23;;;25.00;50.30;;;;;;5007716;28;20550;-71
2023/03/22 10:07:33;;;;;;;1.60;1.10;;;25.00;49.00;;;;;;5005329;28;20941;-71
2023/03/22 10:10:04;;;;;;;2.47;1.50;;;25.90;48.70;;;;;;5006444;28;20458;-71
2023/03/22 10:12:39;;;;;;;1.50;1.30;;;25.60;48.20;;;;;;5007472;28;20440;-71
2023/03/22 10:15:22;;;;;;;1.50;1.30;;;26.00;48.20;;;;;;5013971;28;20672;-71
2023/03/22 10:17:52;;;;;;;2.30;1.47;;;25.60;48.50;;;;;;5007306;28;20444;-69
2023/03/22 10:20:38;;;;;;;4.00;1.50;;;24.70;50.10;;;;;;5007766;28;20484;-70
2023/03/22 10:23:09;;;;;;;1.80;1.53;;;25.00;51.00;;;;;;5007149;28;20433;-70
2023/03/22 10:25:38;;;;;;;1.30;1.00;;;24.50;50.90;;;;;;5004333;28;20497;-70
2023/03/22 10:28:18;;;;;;;2.07;1.53;;;24.80;51.50;;;;;;5008147;28;20433;-70
2023/03/22 10:30:49;;;;;;;1.47;1.37;;;24.20;51.30;;;;;;5008776;28;20898;-70
2023/03/22 10:33:38;;;;;;;2.03;1.40;;;24.20;51.90;;;;;;5007714;28;20823;-70
2023/03/22 10:36:07;;;;;;;1.60;1.30;;;24.30;51.80;;;;;;5007813;28;20432;-69
2023/03/22 10:38:35;;;;;;;3.47;1.70;;;24.40;51.50;;;;;;5006738;28;20917;-69
2023/03/22 10:41:02;;;;;;;2.17;1.80;;;24.90;52.00;;;;;;5008138;28;20823;-69
2023/03/22 10:43:38;;;;;;;2.03;1.27;;;25.10;51.10;;;;;;5003420;28;20449;-69
2023/03/22 10:46:11;;;;;;;1.67;1.30;;;24.90;51.20;;;;;;5000490;28;20538;-72
2023/03/22 10:48:42;;;;;;;1.43;1.27;;;24.20;51.50;;;;;;5004850;28;20467;-72
2023/03/22 10:51:18;;;;;;;2.73;1.60;;;23.50;52.50;;;;;;5004767;28;20855;-71
2023/03/22 10:53:46;;;;;;;2.80;1.57;;;23.20;53.90;;;;;;5003044;28;20522;-71
2023/03/22 10:56:14;;;;;;;5.20;2.10;;;23.30;53.90;;;;;;5004286;28;20483;-72
2023/03/22 10:58:40;;;;;;;1.40;1.30;;;23.80;53.70;;;;;;5008425;28;20933;-72
2023/03/22 11:01:08;;;;;;;2.60;1.43;;;24.10;52.50;;;;;;5004804;28;20553;-72
2023/03/22 11:03:34;;;;;;;1.80;1.40;;;23.90;52.70;;;;;;5008326;28;20438;-72
2023/03/22 11:06:25;;;;;;;4.00;1.83;;;24.50;51.70;;;;;;5006576;28;20477;-72
2023/03/22 11:08:53;;;;;;;1.40;1.13;;;25.10;50.10;;;;;;5007004;28;20460;-72
2023/03/22 11:11:33;;;;;;;5.60;5.03;;;24.80;50.20;;;;;;5003789;28;20736;-71
2023/03/22 11:14:04;;;;;;;1.03;0.90;;;24.70;50.50;;;;;;5002683;28;20441;-71
2023/03/22 11:16:39;;;;;;;3.07;1.00;;;24.80;48.90;;;;;;5005900;28;20479;-71
2023/03/22 11:19:05;;;;;;;3.63;1.40;;;24.20;49.30;;;;;;5003426;28;20443;-70
2023/03/22 11:21:32;;;;;;;1.87;1.30;;;23.60;51.50;;;;;;5005323;28;20459;-72
2023/03/22 11:24:04;;;;;;;1.50;1.03;;;23.70;51.10;;;;;;5005496;28;20214;-72
2023/03/22 11:26:33;;;;;;;1.37;1.17;;;23.90;50.90;;;;;;5002659;28;20450;-71
2023/03/22 11:29:18;;;;;;;1.00;0.90;;;23.40;51.90;;;;;;5006058;28;20446;-70
2023/03/22 11:31:56;;;;;;;3.97;1.10;;;23.30;52.00;;;;;;5001765;28;21486;-72
2023/03/22 11:34:25;;;;;;;1.77;0.97;;;23.00;52.00;;;;;;5019756;28;20437;-71
2023/03/22 11:36:55;;;;;;;2.97;1.50;;;23.30;49.80;;;;;;5009627;28;20447;-71
2023/03/22 11:39:23;;;;;;;2.10;1.20;;;23.30;49.50;;;;;;5007662;28;20528;-71
2023/03/22 11:41:49;;;;;;;1.53;1.10;;;23.20;48.50;;;;;;5006140;28;20465;-71
2023/03/22 11:44:17;;;;;;;1.47;1.07;;;23.20;48.10;;;;;;5004133;28;20579;-71
2023/03/22 11:46:59;;;;;;;1.90;1.13;;;23.40;48.40;;;;;;5005017;28;20485;-71
2023/03/22 11:49:35;;;;;;;3.87;1.50;;;23.60;48.80;;;;;;5006569;28;20902;-71
2023/03/22 11:52:11;;;;;;;1.67;1.10;;;23.90;49.10;;;;;;5013145;28;20875;-71
2023/03/22 11:54:41;;;;;;;2.63;1.00;;;23.70;48.00;;;;;;5011922;28;20832;-73
2023/03/22 11:57:12;;;;;;;1.80;1.00;;;23.40;48.20;;;;;;5012772;28;20469;-70
2023/03/22 12:00:20;;;;;;;1.00;0.80;;;23.40;47.40;;;;;;5008020;28;20450;-71
2023/03/22 12:02:53;;;;;;;2.33;1.10;;;23.30;46.20;;;;;;5005287;28;20955;-71
2023/03/22 12:05:26;;;;;;;1.13;1.03;;;23.30;46.10;;;;;;5005385;28;20502;-71
2023/03/22 12:08:17;;;;;;;1.43;1.20;;;23.00;47.20;;;;;;5010478;28;20528;-72
2023/03/22 12:10:47;;;;;;;1.00;0.90;;;22.90;47.00;;;;;;5004407;28;20461;-71
2023/03/22 12:13:22;;;;;;;1.47;0.90;;;23.10;46.00;;;;;;5008580;28;20793;-71
2023/03/22 12:15:54;;;;;;;1.20;1.00;;;23.30;45.50;;;;;;5009272;28;20484;-71
2023/03/22 12:18:36;;;;;;;1.83;1.50;;;23.30;45.50;;;;;;5008742;28;20495;-71
2023/03/22 12:21:02;;;;;;;1.47;1.10;;;23.20;46.10;;;;;;5006183;28;20508;-71
2023/03/22 12:23:30;;;;;;;1.53;1.10;;;22.90;46.80;;;;;;5010417;28;20472;-72
2023/03/22 12:25:59;;;;;;;2.23;1.47;;;22.60;47.00;;;;;;5007353;28;20232;-74
2023/03/22 12:28:49;;;;;;;2.70;1.10;;;22.20;47.90;;;;;;5007526;28;20442;-72
2023/03/22 12:31:21;;;;;;;1.67;1.10;;;22.10;47.50;;;;;;5039889;28;20470;-73
2023/03/22 12:33:55;;;;;;;1.10;1.00;;;22.00;47.90;;;;;;5004391;28;20572;-72
2023/03/22 12:36:32;;;;;;;1.27;1.10;;;21.80;46.70;;;;;;5020222;28;20445;-72
2023/03/22 12:39:01;;;;;;;1.10;0.90;;;21.60;46.80;;;;;;5002510;28;20508;-72
2023/03/22 12:41:45;;;;;;;3.63;1.03;;;21.60;46.80;;;;;;5004751;28;20461;-72
2023/03/22 12:44:17;;;;;;;7.03;3.70;;;21.80;47.10;;;;;;5007170;28;20441;-69
2023/03/22 12:46:56;;;;;;;3.50;1.03;;;22.00;47.00;;;;;;5006909;28;20536;-70
2023/03/22 12:49:34;;;;;;;1.30;1.20;;;21.50;46.20;;;;;;5004410;28;20464;-77
2023/03/22 12:52:16;;;;;;;4.10;1.70;;;22.10;47.60;;;;;;5006672;28;20457;-69
2023/03/22 12:54:43;;;;;;;3.03;1.00;;;22.00;48.40;;;;;;5005699;28;20986;-68
2023/03/22 12:57:10;;;;;;;2.17;1.33;;;22.00;47.50;;;;;;5006032;28;20445;-69
2023/03/22 12:59:36;;;;;;;3.13;1.40;;;22.00;48.20;;;;;;5009886;28;20437;-68
2023/03/22 13:02:33;;;;;;;2.27;1.10;;;22.00;47.60;;;;;;5022779;28;20544;-69